Time;durP1;ratioP1;P1;durP2;ratioP2;P2;SDS_P1;SDS_P2;PMS_P1;PMS_P2;Temp;Humidity;BMP_temperature;BMP_pressure;BME280_temperature;BME280_humidity;BME280_pressure;Samples;Min_cycle;Max_cycle;Signal;HPM_P1;HPM_P2
2023/04/18 00:01:53;;;;;;;13.25;7.43;;;;;;;;;;5104917;28;20054;-66
2023/04/18 00:04:20;;;;;;;11.80;7.85;;;;;;;;;;5106807;27;20055;-66
2023/04/18 00:06:48;;;;;;;12.23;7.95;;;;;;;;;;5104350;28;20050;-66
2023/04/18 00:09:16;;;;;;;14.10;8.05;;;;;;;;;;5105845;28;20050;-66
2023/04/18 00:11:44;;;;;;;17.60;8.50;;;;;;;;;;5107242;28;20051;-66
2023/04/18 00:14:13;;;;;;;13.98;8.20;;;;;;;;;;5105197;27;20047;-66
2023/04/18 00:16:41;;;;;;;19.38;8.25;;;;;;;;;;5108022;28;20050;-66
2023/04/18 00:19:08;;;;;;;17.48;9.23;;;;;;;;;;5105013;28;20051;-66
2023/04/18 00:21:36;;;;;;;18.30;9.43;;;;;;;;;;5110223;27;20067;-66
2023/04/18 00:24:04;;;;;;;19.52;10.25;;;;;;;;;;5106785;27;20647;-66
2023/04/18 00:26:31;;;;;;;20.65;10.75;;;;;;;;;;5103219;28;20044;-66
2023/04/18 00:28:58;;;;;;;16.30;9.43;;;;;;;;;;5107365;28;20075;-67
2023/04/18 00:31:27;;;;;;;18.27;10.55;;;;;;;;;;5107390;28;20143;-66
2023/04/18 00:33:54;;;;;;;19.55;10.65;;;;;;;;;;5107329;28;20039;-67
2023/04/18 00:36:21;;;;;;;19.30;10.57;;;;;;;;;;5108326;28;20324;-66
2023/04/18 00:38:49;;;;;;;20.80;10.32;;;;;;;;;;5103135;28;20047;-66
2023/04/18 00:41:16;;;;;;;25.02;10.68;;;;;;;;;;5104644;28;20162;-66
2023/04/18 00:43:43;;;;;;;19.65;9.80;;;;;;;;;;5107399;28;20142;-66
2023/04/18 00:46:10;;;;;;;15.48;8.85;;;;;;;;;;5104860;27;20046;-66
2023/04/18 00:48:40;;;;;;;19.42;9.32;;;;;;;;;;5107039;28;20050;-67
2023/04/18 00:51:07;;;;;;;14.77;8.40;;;;;;;;;;5106533;28;20048;-67
2023/04/18 00:53:34;;;;;;;14.18;8.38;;;;;;;;;;5105939;28;20056;-66
2023/04/18 00:56:02;;;;;;;18.30;8.50;;;;;;;;;;5107791;28;20440;-66
2023/04/18 00:58:30;;;;;;;14.30;7.88;;;;;;;;;;5105947;28;20054;-66
2023/04/18 01:00:57;;;;;;;13.07;7.90;;;;;;;;;;5110269;28;20497;-67
2023/04/18 01:03:25;;;;;;;13.98;7.32;;;;;;;;;;5109037;28;20039;-66
2023/04/18 01:05:56;;;;;;;12.13;7.53;;;;;;;;;;5105815;28;20075;-66
2023/04/18 01:08:23;;;;;;;15.55;7.35;;;;;;;;;;5112362;27;20511;-66
2023/04/18 01:10:50;;;;;;;12.07;6.78;;;;;;;;;;5110823;28;20443;-66
2023/04/18 01:13:18;;;;;;;13.23;7.13;;;;;;;;;;5106264;28;20054;-66
2023/04/18 01:15:50;;;;;;;15.85;7.22;;;;;;;;;;5102759;28;20086;-67
2023/04/18 01:18:17;;;;;;;10.90;7.20;;;;;;;;;;5100345;28;20060;-66
2023/04/18 01:20:46;;;;;;;13.05;7.60;;;;;;;;;;5106784;28;20093;-68
2023/04/18 01:23:15;;;;;;;14.55;7.00;;;;;;;;;;5107905;28;20048;-67
2023/04/18 01:25:44;;;;;;;17.65;8.27;;;;;;;;;;5104105;28;20044;-66
2023/04/18 01:28:12;;;;;;;15.07;7.03;;;;;;;;;;5102059;28;20055;-67
2023/04/18 01:30:40;;;;;;;13.05;7.05;;;;;;;;;;5104445;28;20387;-67
2023/04/18 01:33:07;;;;;;;15.00;7.95;;;;;;;;;;5103615;28;20067;-66
2023/04/18 01:35:35;;;;;;;17.52;7.40;;;;;;;;;;5110244;28;20048;-66
2023/04/18 01:38:02;;;;;;;15.25;8.27;;;;;;;;;;5105600;28;20076;-67
2023/04/18 01:40:29;;;;;;;15.52;8.10;;;;;;;;;;5105798;28;20044;-67
2023/04/18 01:42:58;;;;;;;16.38;7.82;;;;;;;;;;5107340;28;20508;-66
2023/04/18 01:45:25;;;;;;;16.77;8.07;;;;;;;;;;5108742;28;20051;-66
2023/04/18 01:47:52;;;;;;;12.68;7.10;;;;;;;;;;5103423;28;20046;-67
2023/04/18 01:50:20;;;;;;;15.25;7.80;;;;;;;;;;5105445;28;20043;-67
2023/04/18 01:52:47;;;;;;;12.48;6.68;;;;;;;;;;5105489;28;20139;-67
2023/04/18 01:55:14;;;;;;;11.82;6.40;;;;;;;;;;5103552;27;20079;-66
2023/04/18 01:57:42;;;;;;;12.45;6.53;;;;;;;;;;5112172;27;20051;-66
2023/04/18 02:00:11;;;;;;;15.27;6.35;;;;;;;;;;5108058;28;20062;-67
2023/04/18 02:02:38;;;;;;;12.73;6.32;;;;;;;;;;5110579;27;20475;-66
2023/04/18 02:05:06;;;;;;;11.77;6.28;;;;;;;;;;5112151;27;20064;-66
2023/04/18 02:07:33;;;;;;;11.05;6.13;;;;;;;;;;5110940;27;20051;-66
2023/04/18 02:10:00;;;;;;;12.38;5.95;;;;;;;;;;5108784;27;20051;-66
2023/04/18 02:12:28;;;;;;;13.15;6.38;;;;;;;;;;5110580;28;20046;-66
2023/04/18 02:14:55;;;;;;;8.77;5.90;;;;;;;;;;5109383;27;20044;-66
2023/04/18 02:17:24;;;;;;;11.90;6.28;;;;;;;;;;5107440;27;20054;-66
2023/04/18 02:19:51;;;;;;;13.18;5.88;;;;;;;;;;5107345;27;20148;-66
2023/04/18 02:22:18;;;;;;;11.07;4.97;;;;;;;;;;5109080;27;20411;-66
2023/04/18 02:24:46;;;;;;;12.48;5.72;;;;;;;;;;5107894;28;20048;-67
2023/04/18 02:27:13;;;;;;;8.50;4.97;;;;;;;;;;5110060;28;20043;-66
2023/04/18 02:29:40;;;;;;;10.63;5.30;;;;;;;;;;5110259;28;20062;-67
2023/04/18 02:32:08;;;;;;;19.55;5.45;;;;;;;;;;5109236;27;20051;-66
2023/04/18 02:34:36;;;;;;;8.05;5.10;;;;;;;;;;5105736;28;20044;-66
2023/04/18 02:37:04;;;;;;;8.13;4.40;;;;;;;;;;5103825;28;20048;-66
2023/04/18 02:39:31;;;;;;;7.93;4.63;;;;;;;;;;5104913;28;20477;-66
2023/04/18 02:41:58;;;;;;;6.50;4.32;;;;;;;;;;5105189;28;20062;-67
2023/04/18 02:44:25;;;;;;;7.43;4.80;;;;;;;;;;5110048;28;20054;-66
2023/04/18 02:46:53;;;;;;;10.48;4.47;;;;;;;;;;5103685;28;20384;-66
2023/04/18 02:49:20;;;;;;;8.23;4.22;;;;;;;;;;5108693;28;20054;-66
2023/04/18 02:51:49;;;;;;;7.90;4.25;;;;;;;;;;5101342;28;20047;-66
2023/04/18 02:54:16;;;;;;;9.52;4.68;;;;;;;;;;5107925;28;20168;-66
2023/04/18 02:56:43;;;;;;;8.65;4.47;;;;;;;;;;5110907;27;20043;-67
2023/04/18 02:59:10;;;;;;;6.95;4.03;;;;;;;;;;5107752;27;20414;-66
2023/04/18 03:01:38;;;;;;;7.63;4.00;;;;;;;;;;5109897;27;20047;-66
2023/04/18 03:04:05;;;;;;;6.75;3.97;;;;;;;;;;5107740;27;20059;-66
2023/04/18 03:06:32;;;;;;;10.05;4.53;;;;;;;;;;5109563;28;20349;-66
2023/04/18 03:09:01;;;;;;;8.00;4.72;;;;;;;;;;5105433;28;20043;-67
2023/04/18 03:11:28;;;;;;;9.98;4.75;;;;;;;;;;5110146;28;20130;-66
2023/04/18 03:13:56;;;;;;;9.80;4.95;;;;;;;;;;5110193;27;20043;-67
2023/04/18 03:16:23;;;;;;;11.43;5.45;;;;;;;;;;5106316;27;20043;-67
2023/04/18 03:18:50;;;;;;;8.55;5.85;;;;;;;;;;5109234;28;20532;-67
2023/04/18 03:21:18;;;;;;;17.38;6.40;;;;;;;;;;5105090;28;20048;-67
2023/04/18 03:23:45;;;;;;;10.77;5.88;;;;;;;;;;5110082;28;20047;-67
2023/04/18 03:26:14;;;;;;;12.50;6.47;;;;;;;;;;5106437;28;20509;-67
2023/04/18 03:28:41;;;;;;;11.35;6.70;;;;;;;;;;5107564;27;20046;-66
2023/04/18 03:31:08;;;;;;;15.10;6.28;;;;;;;;;;5107740;28;20418;-66
2023/04/18 03:33:37;;;;;;;13.82;6.18;;;;;;;;;;5108732;27;20047;-66
2023/04/18 03:36:05;;;;;;;10.55;5.80;;;;;;;;;;5107920;28;20043;-67
2023/04/18 03:38:32;;;;;;;12.30;5.68;;;;;;;;;;5108902;28;20054;-67
2023/04/18 03:40:59;;;;;;;10.65;5.70;;;;;;;;;;5108030;28;20052;-67
2023/04/18 03:43:28;;;;;;;9.93;5.38;;;;;;;;;;5109396;27;20043;-66
2023/04/18 03:45:55;;;;;;;8.45;5.32;;;;;;;;;;5109543;27;20051;-66
2023/04/18 03:48:23;;;;;;;9.77;5.28;;;;;;;;;;5105401;27;20523;-66
2023/04/18 03:50:50;;;;;;;9.38;5.78;;;;;;;;;;5107119;28;20050;-66
2023/04/18 03:53:17;;;;;;;11.10;5.05;;;;;;;;;;5100966;28;20047;-66
2023/04/18 03:55:45;;;;;;;11.65;5.30;;;;;;;;;;5107027;28;20066;-67
2023/04/18 03:58:12;;;;;;;11.32;5.90;;;;;;;;;;5107973;28;20066;-66
2023/04/18 04:00:41;;;;;;;11.55;6.10;;;;;;;;;;5109756;28;20073;-66
2023/04/18 04:03:08;;;;;;;12.95;6.20;;;;;;;;;;5107097;28;20039;-67
2023/04/18 04:05:35;;;;;;;12.13;6.65;;;;;;;;;;5108567;28;20549;-67
2023/04/18 04:08:02;;;;;;;14.32;6.63;;;;;;;;;;5103144;27;20047;-67
2023/04/18 04:10:30;;;;;;;9.65;6.85;;;;;;;;;;5109479;27;20310;-67
2023/04/18 04:12:57;;;;;;;12.20;6.70;;;;;;;;;;5107674;28;20124;-68
2023/04/18 04:15:24;;;;;;;15.75;7.28;;;;;;;;;;5111341;27;20154;-67
2023/04/18 04:17:53;;;;;;;15.50;6.68;;;;;;;;;;5107408;28;20052;-66
2023/04/18 04:20:23;;;;;;;11.75;7.43;;;;;;;;;;5108493;28;20118;-67
2023/04/18 04:22:51;;;;;;;17.52;8.43;;;;;;;;;;5107351;28;20057;-67
2023/04/18 04:25:18;;;;;;;15.45;7.43;;;;;;;;;;5106703;28;20054;-67
2023/04/18 04:27:46;;;;;;;15.65;7.57;;;;;;;;;;5106121;28;20146;-66
2023/04/18 04:30:13;;;;;;;14.00;7.70;;;;;;;;;;5102685;28;20612;-66
2023/04/18 04:32:40;;;;;;;16.40;7.80;;;;;;;;;;5106941;28;20148;-67
2023/04/18 04:35:10;;;;;;;12.65;7.78;;;;;;;;;;5104870;28;20092;-66
2023/04/18 04:37:39;;;;;;;15.40;9.30;;;;;;;;;;5102062;28;20040;-66
2023/04/18 04:40:08;;;;;;;20.38;8.40;;;;;;;;;;5103794;28;20043;-66
2023/04/18 04:42:35;;;;;;;17.05;8.90;;;;;;;;;;5108718;27;20040;-67
2023/04/18 04:45:02;;;;;;;18.25;9.20;;;;;;;;;;5102182;28;20087;-66
2023/04/18 04:47:29;;;;;;;15.85;8.80;;;;;;;;;;5108295;27;20550;-66
2023/04/18 04:49:57;;;;;;;20.75;9.75;;;;;;;;;;5105729;28;20061;-66
2023/04/18 04:52:25;;;;;;;18.45;9.80;;;;;;;;;;5105939;27;20062;-67
2023/04/18 04:54:53;;;;;;;16.80;9.23;;;;;;;;;;5104825;28;20050;-66
2023/04/18 04:57:20;;;;;;;18.63;10.25;;;;;;;;;;5107204;27;20054;-67
2023/04/18 04:59:47;;;;;;;19.38;9.70;;;;;;;;;;5108321;28;20545;-68
2023/04/18 05:02:15;;;;;;;18.05;9.43;;;;;;;;;;5104966;28;20047;-67
2023/04/18 05:04:42;;;;;;;17.52;9.65;;;;;;;;;;5104272;28;20060;-66
2023/04/18 05:07:10;;;;;;;18.13;9.05;;;;;;;;;;5104869;28;20059;-67
2023/04/18 05:09:38;;;;;;;21.20;10.35;;;;;;;;;;5102814;28;20056;-67
2023/04/18 05:12:06;;;;;;;17.23;9.57;;;;;;;;;;5101321;28;20087;-67
2023/04/18 05:14:33;;;;;;;16.63;8.82;;;;;;;;;;5108224;28;20047;-67
2023/04/18 05:17:01;;;;;;;17.65;9.60;;;;;;;;;;5102919;28;20083;-67
2023/04/18 05:19:28;;;;;;;16.55;9.45;;;;;;;;;;5102218;28;20089;-66
2023/04/18 05:21:56;;;;;;;15.27;9.13;;;;;;;;;;5108035;28;20044;-67
2023/04/18 05:24:23;;;;;;;17.38;9.75;;;;;;;;;;5104579;28;20044;-67
2023/04/18 05:26:51;;;;;;;18.85;9.38;;;;;;;;;;5101803;28;20056;-67
2023/04/18 05:29:19;;;;;;;17.90;9.60;;;;;;;;;;5110006;28;20051;-67
2023/04/18 05:31:46;;;;;;;17.58;9.43;;;;;;;;;;5109793;28;20067;-67
2023/04/18 05:34:13;;;;;;;14.63;9.13;;;;;;;;;;5112134;28;20066;-66
2023/04/18 05:36:41;;;;;;;18.02;9.35;;;;;;;;;;5109471;27;20051;-66
2023/04/18 05:39:08;;;;;;;19.95;9.13;;;;;;;;;;5106952;27;20368;-67
2023/04/18 05:41:35;;;;;;;15.82;9.50;;;;;;;;;;5110326;28;20047;-67
2023/04/18 05:44:04;;;;;;;17.33;9.02;;;;;;;;;;5112159;27;20459;-66
2023/04/18 05:46:31;;;;;;;16.40;8.98;;;;;;;;;;5103606;28;20391;-67
2023/04/18 05:48:59;;;;;;;16.92;8.65;;;;;;;;;;5108418;27;20048;-67
2023/04/18 05:51:27;;;;;;;19.70;9.30;;;;;;;;;;5109844;28;20563;-67
2023/04/18 05:53:54;;;;;;;18.92;8.98;;;;;;;;;;5107830;28;20047;-67
2023/04/18 05:56:21;;;;;;;16.50;8.65;;;;;;;;;;5108539;27;20044;-66
2023/04/18 05:58:50;;;;;;;14.40;9.30;;;;;;;;;;5108411;28;20394;-67
2023/04/18 06:01:18;;;;;;;16.95;8.45;;;;;;;;;;5111606;28;20491;-67
2023/04/18 06:03:46;;;;;;;12.40;8.10;;;;;;;;;;5111183;27;20410;-69
2023/04/18 06:06:13;;;;;;;17.35;8.15;;;;;;;;;;5107325;28;20048;-70
2023/04/18 06:08:40;;;;;;;15.25;8.05;;;;;;;;;;5109063;28;20044;-69
2023/04/18 06:11:08;;;;;;;15.07;8.75;;;;;;;;;;5107775;28;20509;-70
2023/04/18 06:13:36;;;;;;;15.52;7.93;;;;;;;;;;5110894;28;20066;-69
2023/04/18 06:16:03;;;;;;;13.43;7.65;;;;;;;;;;5110406;28;20051;-70
2023/04/18 06:18:31;;;;;;;15.27;7.80;;;;;;;;;;5109450;28;20047;-70
2023/04/18 06:20:59;;;;;;;16.30;7.97;;;;;;;;;;5107803;28;20083;-70
2023/04/18 06:23:26;;;;;;;12.45;7.65;;;;;;;;;;5109384;28;20040;-70
2023/04/18 06:25:53;;;;;;;17.10;7.70;;;;;;;;;;5107195;28;20051;-70
2023/04/18 06:28:21;;;;;;;15.98;7.53;;;;;;;;;;5109612;28;20395;-69
2023/04/18 06:30:48;;;;;;;14.32;7.65;;;;;;;;;;5105011;28;20495;-69
2023/04/18 06:33:15;;;;;;;12.95;6.97;;;;;;;;;;5108639;27;20051;-69
2023/04/18 06:35:44;;;;;;;10.40;6.72;;;;;;;;;;5110549;27;20047;-70
2023/04/18 06:38:11;;;;;;;12.60;7.43;;;;;;;;;;5110140;27;20047;-70
2023/04/18 06:40:38;;;;;;;15.95;6.57;;;;;;;;;;5106341;28;20086;-70
2023/04/18 06:43:06;;;;;;;11.48;6.40;;;;;;;;;;5108497;28;20367;-70
2023/04/18 06:45:33;;;;;;;18.08;7.13;;;;;;;;;;5107570;28;20046;-70
2023/04/18 06:48:03;;;;;;;15.00;6.28;;;;;;;;;;5110609;27;20044;-70
2023/04/18 06:50:30;;;;;;;13.27;6.70;;;;;;;;;;5107599;27;20059;-70
2023/04/18 06:52:59;;;;;;;11.45;6.38;;;;;;;;;;5107873;28;20047;-70
2023/04/18 06:55:26;;;;;;;10.70;6.07;;;;;;;;;;5099175;28;20054;-70
2023/04/18 06:57:53;;;;;;;16.95;6.68;;;;;;;;;;5105536;28;20060;-69
2023/04/18 07:00:21;;;;;;;11.02;6.30;;;;;;;;;;5104897;27;20047;-70
2023/04/18 07:02:48;;;;;;;11.02;6.22;;;;;;;;;;5103470;27;20051;-70
2023/04/18 07:05:16;;;;;;;10.73;6.28;;;;;;;;;;5107030;27;20510;-70
2023/04/18 07:07:43;;;;;;;14.02;6.07;;;;;;;;;;5104809;28;20778;-70
2023/04/18 07:10:12;;;;;;;11.25;5.80;;;;;;;;;;5105466;27;20048;-70
2023/04/18 07:12:39;;;;;;;15.23;5.75;;;;;;;;;;5104521;28;20814;-71
2023/04/18 07:15:07;;;;;;;8.85;5.60;;;;;;;;;;5102256;28;20047;-69
2023/04/18 07:17:34;;;;;;;12.82;6.15;;;;;;;;;;5106197;28;20130;-70
2023/04/18 07:20:02;;;;;;;8.50;5.50;;;;;;;;;;5105050;27;20051;-70
2023/04/18 07:22:29;;;;;;;21.02;6.53;;;;;;;;;;5103896;28;21037;-70
2023/04/18 07:24:57;;;;;;;10.35;6.20;;;;;;;;;;5103459;27;20082;-70
2023/04/18 07:27:25;;;;;;;11.98;6.57;;;;;;;;;;5101202;28;20482;-70
2023/04/18 07:29:53;;;;;;;16.55;6.40;;;;;;;;;;5105459;27;20075;-70
2023/04/18 07:32:20;;;;;;;14.57;6.22;;;;;;;;;;5106217;28;20064;-70
2023/04/18 07:34:47;;;;;;;10.68;5.85;;;;;;;;;;5110746;27;20070;-70
2023/04/18 07:37:16;;;;;;;13.48;5.60;;;;;;;;;;5104516;28;20047;-70
2023/04/18 07:39:43;;;;;;;11.00;6.18;;;;;;;;;;5101005;27;20043;-70
2023/04/18 07:42:11;;;;;;;11.07;5.95;;;;;;;;;;5105496;28;20055;-70
2023/04/18 07:44:39;;;;;;;12.05;6.13;;;;;;;;;;5112780;27;20047;-70
2023/04/18 07:47:09;;;;;;;14.98;6.53;;;;;;;;;;5107070;28;20089;-70
2023/04/18 07:49:36;;;;;;;14.80;6.60;;;;;;;;;;5108177;27;20071;-70
2023/04/18 07:52:03;;;;;;;10.25;6.50;;;;;;;;;;5106796;27;20067;-70
2023/04/18 07:54:31;;;;;;;11.10;6.32;;;;;;;;;;5126387;27;20051;-70
2023/04/18 07:56:59;;;;;;;12.73;6.50;;;;;;;;;;5126796;27;20059;-70
2023/04/18 07:59:28;;;;;;;15.05;6.10;;;;;;;;;;5121610;27;20468;-70
2023/04/18 08:01:57;;;;;;;12.93;6.20;;;;;;;;;;5128681;27;20049;-70
2023/04/18 08:04:24;;;;;;;12.88;6.88;;;;;;;;;;5128858;27;20527;-70
2023/04/18 08:06:51;;;;;;;14.52;6.07;;;;;;;;;;5123063;27;20050;-70
2023/04/18 08:09:19;;;;;;;14.98;6.00;;;;;;;;;;5124107;27;20047;-70
2023/04/18 08:11:47;;;;;;;12.68;6.40;;;;;;;;;;5128068;27;20108;-70
2023/04/18 08:14:14;;;;;;;11.60;5.63;;;;;;;;;;5126407;27;20146;-70
2023/04/18 08:16:41;;;;;;;11.00;5.97;;;;;;;;;;5127221;27;20109;-70
2023/04/18 08:19:10;;;;;;;12.38;5.82;;;;;;;;;;5125377;27;20073;-70
2023/04/18 08:21:38;;;;;;;11.80;5.90;;;;;;;;;;5127090;27;20047;-70
2023/04/18 08:24:05;;;;;;;17.30;5.95;;;;;;;;;;5124766;27;20039;-70
2023/04/18 08:26:32;;;;;;;11.55;5.47;;;;;;;;;;5128964;27;20058;-70
2023/04/18 08:29:00;;;;;;;12.05;5.53;;;;;;;;;;5112699;27;20488;-70
2023/04/18 08:31:27;;;;;;;9.20;5.28;;;;;;;;;;5130065;27;20504;-70
2023/04/18 08:33:55;;;;;;;12.35;5.60;;;;;;;;;;5129749;27;20320;-71
2023/04/18 08:36:24;;;;;;;12.60;5.78;;;;;;;;;;5110155;27;20054;-70
2023/04/18 08:38:52;;;;;;;14.60;5.78;;;;;;;;;;5125788;27;20038;-70
2023/04/18 08:41:22;;;;;;;11.32;5.43;;;;;;;;;;5132154;27;20495;-70
2023/04/18 08:43:49;;;;;;;14.68;6.13;;;;;;;;;;5117193;27;20057;-70
2023/04/18 08:46:17;;;;;;;13.40;5.40;;;;;;;;;;5126526;27;20074;-70
2023/04/18 08:48:46;;;;;;;9.07;5.47;;;;;;;;;;5130461;27;20035;-70
2023/04/18 08:51:13;;;;;;;12.15;6.13;;;;;;;;;;5127063;27;20047;-71
2023/04/18 08:53:43;;;;;;;20.55;5.47;;;;;;;;;;5125382;27;20510;-70
2023/04/18 08:56:13;;;;;;;18.23;5.63;;;;;;;;;;5126134;27;20046;-70
2023/04/18 08:58:40;;;;;;;10.50;5.50;;;;;;;;;;5102796;27;20054;-70
2023/04/18 09:01:09;;;;;;;9.43;5.78;;;;;;;;;;5123912;27;20104;-70
2023/04/18 09:03:40;;;;;;;8.63;5.35;;;;;;;;;;5127141;27;20047;-70
2023/04/18 09:06:08;;;;;;;12.00;5.93;;;;;;;;;;5110989;27;20066;-70
2023/04/18 09:08:35;;;;;;;15.70;5.38;;;;;;;;;;5125309;27;20128;-70
2023/04/18 09:11:19;;;;;;;13.30;5.80;;;;;;;;;;5124639;27;20051;-70
2023/04/18 09:13:49;;;;;;;12.02;6.38;;;;;;;;;;5113082;28;20055;-70
2023/04/18 09:16:18;;;;;;;11.10;6.03;;;;;;;;;;5126707;27;20047;-70
2023/04/18 09:19:08;;;;;;;10.07;5.72;;;;;;;;;;5123727;27;20116;-70
2023/04/18 09:21:35;;;;;;;11.88;5.97;;;;;;;;;;5124815;27;20047;-70
2023/04/18 09:24:16;;;;;;;11.65;5.10;;;;;;;;;;5122774;27;20055;-70
2023/04/18 09:26:44;;;;;;;12.65;5.85;;;;;;;;;;5127119;27;20184;-70
2023/04/18 09:29:13;;;;;;;9.93;5.47;;;;;;;;;;5127974;27;20047;-70
2023/04/18 09:31:53;;;;;;;11.68;5.68;;;;;;;;;;5126332;27;20047;-70
2023/04/18 09:34:23;;;;;;;18.88;6.22;;;;;;;;;;5128653;27;20054;-70
2023/04/18 09:37:05;;;;;;;14.00;5.05;;;;;;;;;;5127486;27;20059;-70
2023/04/18 09:39:32;;;;;;;9.13;5.32;;;;;;;;;;5128238;27;20074;-70
2023/04/18 09:42:01;;;;;;;13.23;5.35;;;;;;;;;;5124786;27;20053;-70
2023/04/18 09:44:29;;;;;;;8.57;4.88;;;;;;;;;;5102938;27;20410;-70
2023/04/18 09:46:57;;;;;;;7.75;4.68;;;;;;;;;;5125361;27;20118;-70
2023/04/18 09:49:24;;;;;;;7.15;4.40;;;;;;;;;;5123887;27;20047;-70
2023/04/18 09:51:52;;;;;;;9.20;4.93;;;;;;;;;;5127383;27;20051;-70
2023/04/18 09:54:19;;;;;;;7.35;4.40;;;;;;;;;;5121684;27;20062;-70
2023/04/18 09:56:49;;;;;;;8.68;4.80;;;;;;;;;;5120804;27;20048;-70
2023/04/18 09:59:17;;;;;;;10.25;5.07;;;;;;;;;;5125383;27;20047;-70
2023/04/18 10:01:47;;;;;;;11.45;4.70;;;;;;;;;;5128110;27;20074;-70
2023/04/18 10:04:15;;;;;;;10.35;5.55;;;;;;;;;;5127676;27;20051;-70
2023/04/18 10:06:43;;;;;;;10.48;5.55;;;;;;;;;;5110727;28;20051;-70
2023/04/18 10:09:11;;;;;;;6.35;4.57;;;;;;;;;;5126664;27;20051;-71
2023/04/18 10:11:38;;;;;;;7.03;4.20;;;;;;;;;;5108423;28;20043;-70
2023/04/18 10:14:08;;;;;;;8.05;4.57;;;;;;;;;;5115799;27;20050;-70
2023/04/18 10:16:36;;;;;;;9.10;4.13;;;;;;;;;;5131071;27;20049;-71
2023/04/18 10:19:18;;;;;;;5.97;4.35;;;;;;;;;;5130274;27;20055;-71
2023/04/18 10:21:52;;;;;;;8.63;4.25;;;;;;;;;;5130849;27;20134;-70
2023/04/18 10:24:38;;;;;;;9.35;4.47;;;;;;;;;;5129822;27;20064;-70
2023/04/18 10:27:05;;;;;;;7.43;4.00;;;;;;;;;;5130578;27;20063;-70
2023/04/18 10:29:46;;;;;;;7.82;4.55;;;;;;;;;;5135970;27;20050;-71
2023/04/18 10:32:14;;;;;;;7.45;4.32;;;;;;;;;;5131344;27;20054;-71
2023/04/18 10:34:41;;;;;;;12.77;5.38;;;;;;;;;;5118479;27;20047;-70
2023/04/18 10:37:11;;;;;;;6.95;4.30;;;;;;;;;;5120253;27;20062;-70
2023/04/18 10:39:57;;;;;;;10.07;4.20;;;;;;;;;;5128468;27;20051;-70
2023/04/18 10:42:43;;;;;;;12.85;4.53;;;;;;;;;;5121758;27;20828;-70
2023/04/18 10:45:20;;;;;;;5.88;4.20;;;;;;;;;;5126694;27;20491;-70
2023/04/18 10:47:47;;;;;;;8.18;4.65;;;;;;;;;;5123902;27;20084;-70
2023/04/18 10:50:14;;;;;;;9.93;4.65;;;;;;;;;;5129390;27;20383;-69
2023/04/18 10:52:43;;;;;;;7.45;4.53;;;;;;;;;;5125410;27;20088;-70
2023/04/18 10:55:13;;;;;;;7.45;4.63;;;;;;;;;;5123843;27;20051;-71
2023/04/18 10:57:42;;;;;;;10.35;4.10;;;;;;;;;;5112768;27;20046;-70
2023/04/18 11:00:11;;;;;;;7.95;4.40;;;;;;;;;;5129550;27;20082;-70
2023/04/18 11:02:39;;;;;;;6.22;3.78;;;;;;;;;;5130561;27;20055;-70
2023/04/18 11:05:07;;;;;;;7.45;4.05;;;;;;;;;;5122959;27;20047;-70
2023/04/18 11:07:34;;;;;;;5.25;3.97;;;;;;;;;;5127804;27;20046;-70
2023/04/18 11:10:03;;;;;;;7.28;3.95;;;;;;;;;;5130743;27;20046;-70
2023/04/18 11:12:32;;;;;;;6.57;4.07;;;;;;;;;;5129959;27;20039;-70
2023/04/18 11:15:00;;;;;;;7.05;4.30;;;;;;;;;;5129538;27;20101;-70
2023/04/18 11:17:31;;;;;;;7.75;4.57;;;;;;;;;;5129940;27;20122;-70
2023/04/18 11:20:04;;;;;;;5.40;4.47;;;;;;;;;;5125441;27;20055;-70
2023/04/18 11:22:31;;;;;;;;;;;;;;;;;;5123588;27;20051;-70
2023/04/18 11:24:59;;;;;;;5.35;4.32;;;;;;;;;;5111980;27;20034;-70
2023/04/18 11:27:27;;;;;;;7.68;4.10;;;;;;;;;;5126299;27;20051;-70
2023/04/18 11:29:55;;;;;;;7.90;4.10;;;;;;;;;;5128048;27;20036;-70
2023/04/18 11:32:23;;;;;;;6.55;4.57;;;;;;;;;;5128569;27;20056;-70
2023/04/18 11:34:52;;;;;;;8.10;4.60;;;;;;;;;;5127829;27;20040;-70
2023/04/18 11:37:19;;;;;;;5.68;4.10;;;;;;;;;;5129134;27;20509;-70
2023/04/18 11:39:47;;;;;;;6.28;4.05;;;;;;;;;;5133925;27;20050;-71
2023/04/18 11:42:14;;;;;;;6.60;4.28;;;;;;;;;;5129020;27;20082;-70
2023/04/18 11:44:45;;;;;;;9.35;4.90;;;;;;;;;;5128601;27;20555;-70
2023/04/18 11:47:25;;;;;;;10.48;4.85;;;;;;;;;;5125422;27;20148;-70
2023/04/18 11:49:59;;;;;;;7.53;4.20;;;;;;;;;;5126836;27;20035;-70
2023/04/18 11:52:27;;;;;;;8.55;4.43;;;;;;;;;;5129193;27;20558;-70
2023/04/18 11:54:55;;;;;;;6.75;4.38;;;;;;;;;;5120932;27;20049;-70
2023/04/18 11:57:23;;;;;;;6.82;4.20;;;;;;;;;;5124069;27;20043;-70
2023/04/18 11:59:53;;;;;;;6.32;4.25;;;;;;;;;;5125691;27;20060;-71
2023/04/18 12:02:21;;;;;;;6.65;4.10;;;;;;;;;;5123871;27;20070;-70
2023/04/18 12:04:55;;;;;;;12.43;4.40;;;;;;;;;;5125492;27;20075;-70
2023/04/18 12:07:36;;;;;;;8.07;4.60;;;;;;;;;;5121204;27;20375;-71
2023/04/18 12:10:03;;;;;;;15.70;5.78;;;;;;;;;;5122374;27;20055;-70
2023/04/18 12:12:31;;;;;;;12.38;5.82;;;;;;;;;;5119440;27;20039;-70
2023/04/18 12:15:00;;;;;;;14.45;6.32;;;;;;;;;;5124417;27;20056;-70
2023/04/18 12:17:28;;;;;;;13.48;5.90;;;;;;;;;;5125795;27;20042;-70
2023/04/18 12:19:56;;;;;;;12.55;5.88;;;;;;;;;;5122815;27;20047;-70
2023/04/18 12:22:40;;;;;;;13.05;5.93;;;;;;;;;;5126070;27;20083;-71
2023/04/18 12:25:18;;;;;;;15.80;6.50;;;;;;;;;;5119982;27;20055;-71
2023/04/18 12:27:53;;;;;;;16.42;7.05;;;;;;;;;;5131326;27;20450;-70
2023/04/18 12:30:22;;;;;;;15.90;6.93;;;;;;;;;;5127981;27;20074;-71
2023/04/18 12:32:53;;;;;;;12.95;7.30;;;;;;;;;;5128403;27;20504;-71
2023/04/18 12:35:21;;;;;;;17.90;7.10;;;;;;;;;;5129217;27;20046;-70
2023/04/18 12:37:48;;;;;;;15.85;7.10;;;;;;;;;;5124555;27;20390;-71
2023/04/18 12:40:17;;;;;;;14.23;6.90;;;;;;;;;;5126441;27;20551;-71
2023/04/18 12:42:45;;;;;;;17.92;7.78;;;;;;;;;;5127477;27;20051;-70
2023/04/18 12:45:13;;;;;;;14.40;7.78;;;;;;;;;;5128491;27;20047;-70
2023/04/18 12:47:42;;;;;;;15.15;7.05;;;;;;;;;;5127781;27;20039;-70
2023/04/18 12:50:10;;;;;;;14.32;6.95;;;;;;;;;;5127929;27;20109;-71
2023/04/18 12:52:38;;;;;;;12.73;6.60;;;;;;;;;;5126986;27;20043;-71
2023/04/18 12:55:06;;;;;;;10.63;5.75;;;;;;;;;;5125137;27;20054;-71
2023/04/18 12:57:33;;;;;;;10.38;5.93;;;;;;;;;;5126261;27;20047;-70
2023/04/18 13:00:01;;;;;;;6.45;5.10;;;;;;;;;;5124104;27;20505;-70
2023/04/18 13:02:28;;;;;;;10.35;5.45;;;;;;;;;;5121667;27;20047;-70
2023/04/18 13:04:57;;;;;;;14.10;5.28;;;;;;;;;;5103440;27;20054;-70
2023/04/18 13:07:25;;;;;;;10.93;5.40;;;;;;;;;;5127652;27;20401;-70
2023/04/18 13:09:52;;;;;;;12.25;5.60;;;;;;;;;;5124092;27;20039;-70
2023/04/18 13:12:19;;;;;;;8.85;5.68;;;;;;;;;;5125001;27;20485;-70
2023/04/18 13:14:47;;;;;;;8.25;5.40;;;;;;;;;;5112573;27;20043;-70
2023/04/18 13:17:14;;;;;;;10.80;5.80;;;;;;;;;;5108866;27;20059;-70
2023/04/18 13:19:41;;;;;;;12.05;6.22;;;;;;;;;;5112445;27;20151;-71
2023/04/18 13:22:10;;;;;;;12.52;6.57;;;;;;;;;;5123172;27;20074;-70
2023/04/18 13:24:37;;;;;;;11.18;6.93;;;;;;;;;;5118223;27;20048;-71
2023/04/18 13:27:09;;;;;;;13.23;6.50;;;;;;;;;;5125835;27;20074;-70
2023/04/18 13:29:37;;;;;;;10.38;6.80;;;;;;;;;;5129421;27;20083;-70
2023/04/18 13:32:04;;;;;;;14.98;6.90;;;;;;;;;;5127389;27;20103;-70
2023/04/18 13:34:32;;;;;;;14.60;6.65;;;;;;;;;;5131082;27;20138;-70
2023/04/18 13:36:59;;;;;;;10.70;6.03;;;;;;;;;;5128331;27;20043;-70
2023/04/18 13:39:27;;;;;;;10.93;5.65;;;;;;;;;;5131054;27;20043;-70
2023/04/18 13:41:55;;;;;;;10.82;6.18;;;;;;;;;;5126435;27;20062;-71
2023/04/18 13:44:23;;;;;;;10.20;5.80;;;;;;;;;;5125309;27;20043;-70
2023/04/18 13:46:51;;;;;;;9.68;6.43;;;;;;;;;;5128434;27;20039;-70
2023/04/18 13:49:18;;;;;;;13.30;6.80;;;;;;;;;;5108998;27;20051;-70
2023/04/18 13:51:45;;;;;;;10.10;6.90;;;;;;;;;;5129560;27;20770;-71
2023/04/18 13:54:15;;;;;;;8.60;5.97;;;;;;;;;;5125542;27;20454;-70
2023/04/18 13:56:44;;;;;;;10.75;5.78;;;;;;;;;;5127731;27;20043;-70
2023/04/18 13:59:11;;;;;;;10.75;6.68;;;;;;;;;;5129741;27;20059;-71
2023/04/18 14:01:38;;;;;;;7.47;5.90;;;;;;;;;;5131648;27;20050;-71
2023/04/18 14:04:05;;;;;;;10.25;5.65;;;;;;;;;;5131313;27;20044;-71
2023/04/18 14:06:33;;;;;;;11.23;5.55;;;;;;;;;;5131466;27;20043;-71
2023/04/18 14:09:00;;;;;;;10.10;5.25;;;;;;;;;;5116238;27;20065;-71
2023/04/18 14:11:27;;;;;;;8.43;4.75;;;;;;;;;;5129396;27;20040;-70
2023/04/18 14:13:56;;;;;;;11.32;6.07;;;;;;;;;;5130057;27;20194;-70
2023/04/18 14:16:23;;;;;;;24.33;6.07;;;;;;;;;;5130483;27;20119;-71
2023/04/18 14:18:50;;;;;;;8.32;5.63;;;;;;;;;;5131315;27;20107;-70
2023/04/18 14:21:18;;;;;;;9.60;5.55;;;;;;;;;;5130656;27;20050;-71
2023/04/18 14:23:45;;;;;;;6.90;5.68;;;;;;;;;;5130421;27;20091;-71
2023/04/18 14:26:12;;;;;;;7.70;6.00;;;;;;;;;;5132705;27;20122;-70
2023/04/18 14:28:40;;;;;;;11.52;6.65;;;;;;;;;;5115147;27;20055;-71
2023/04/18 14:31:08;;;;;;;11.13;6.63;;;;;;;;;;5131167;27;20043;-71
2023/04/18 14:33:37;;;;;;;9.02;6.75;;;;;;;;;;5128407;27;20047;-70
2023/04/18 14:36:04;;;;;;;15.55;6.70;;;;;;;;;;5131032;27;20047;-72
2023/04/18 14:38:31;;;;;;;8.85;5.70;;;;;;;;;;5130031;27;20039;-70
2023/04/18 14:40:59;;;;;;;7.10;5.68;;;;;;;;;;5131765;27;20039;-71